Alpena, MI

4:00 AM EST on January 27, 2015 (GMT -0500)
KMIALPEN2 | Change Station
CLOSE
Current Station
Personal Weather Station
Location: Alpena, MI
Elevation: 591 ft
Nearby Weather Stations

Elev 591 ft 45.05 °N, 83.46 °W | Updated 10 minutes ago

Overcast
Overcast
19.4 °F
Feels Like 11 °F
N
6.0
Wind Variable Wind from East
Gusts 6.0 mph

Today
High -- | Low -- °F
--% Chance of Precip.
Yesterday
High -- | Low -- °F
Precip. -- in
7:59 AM 5:34 PM
First Quarter, 52% visible
Pressure 30.12 in
Visibility 4.0 miles
Clouds Mostly Cloudy 2100 ft
Overcast 2700 ft
Windchill 11 °F
Dew Point 16 °F
Humidity 88%
Rainfall 0.00 in
Snow Depth Not available.
UV 0 out of 12
Pollen .10 out of 12
Air Quality Not available.
Flu Activity Not available.
METAR KAPN 270854Z AUTO 04007KT 4SM -SN BR BKN021 OVC027 M08/M10 A3007 RMK AO2 SNB0757 SLP197 P0000 60000 T10831100 50008

More Conditions Fewer Conditions

Pressure 30.12 in
Visibility 4.0 miles
Clouds Mostly Cloudy 2100 ft
Overcast 2700 ft
Windchill 11 °F
Dew Point 16 °F
Humidity 88%
Rainfall 0.00 in
Snow Depth Not available.
UV 0 out of 12
Pollen .10 out of 12
Air Quality Not available.
Flu Activity Not available.
METAR KAPN 270854Z AUTO 04007KT 4SM -SN BR BKN021 OVC027 M08/M10 A3007 RMK AO2 SNB0757 SLP197 P0000 60000 T10831100 50008

More Conditions Fewer Conditions

Nowcast | as of 3:00 am EST on January 27, 2015

At 4 am...mostly cloudy. Scattered flurries. Temperature 15. Northeast winds 6 mph. At 6 am...mostly cloudy. Scattered flurries. Temperature 13. Northeast winds 6 mph. At 8 am...mostly cloudy. Temperature 13. Northeast winds 7 mph. At 10 am...partly cloudy. Temperature 15. Northeast winds 7 mph.

×

10-Day Weather Forecast

Almanac

Astronomy

Jan. 27, 2015 Rise Set
Actual Time
Civil Twilight
Nautical Twilight
Astronomical Twilight
Moon
Length of Visible Light
Length of Day
Tomorrow will be .
, % of the Moon is Illuminated

Today's Extremes

State Highs State Lows

Community

WunderPhotos

Upload Photos

1,790,555 photos uploaded!

WunderBlogs® & News

Nearby

Air Quality

  Air Quality AQ Index Pollutant
Not available.

Snow Depth

Station Depth Elevation

Earthquake Activity

City Distance Mag. Time & Date
Minimum magnitude displayed is 2.5.

Coastal Water Temperatures

Place Temperature

Nearby Weather Stations